createdAt,value
2019-04-14T00:00:44.744Z,0.93
2019-04-14T00:03:34.740Z,0.91
2019-04-14T00:06:06.960Z,0.87
2019-04-14T00:08:39.458Z,0.84
2019-04-14T00:11:10.420Z,0.81
2019-04-14T00:13:39.933Z,0.76
2019-04-14T00:16:09.659Z,0.75
2019-04-14T00:18:40.432Z,0.70
2019-04-14T00:21:15.304Z,0.64
2019-04-14T00:23:46.400Z,0.57
2019-04-14T00:26:38.481Z,0.47
2019-04-14T00:29:15.214Z,0.40
2019-04-14T00:31:47.913Z,0.34
2019-04-14T00:34:37.635Z,0.27
2019-04-14T00:37:37.960Z,0.19
2019-04-14T00:40:19.357Z,0.17
2019-04-14T00:42:58.196Z,0.14
2019-04-14T00:45:41.462Z,0.19
2019-04-14T00:48:16.167Z,0.25
2019-04-14T00:50:47.308Z,0.28
2019-04-14T00:53:20.786Z,0.35
2019-04-14T00:55:59.822Z,0.39
2019-04-14T00:58:43.153Z,0.40
2019-04-14T01:01:28.637Z,0.43
2019-04-14T01:04:01.677Z,0.43
2019-04-14T01:07:08.637Z,0.43
2019-04-14T01:09:39.097Z,0.43
2019-04-14T01:12:13.395Z,0.39
2019-04-14T01:14:54.574Z,0.33
2019-04-14T01:17:24.452Z,0.29
2019-04-14T01:19:59.287Z,0.25
2019-04-14T01:23:04.249Z,0.22
2019-04-14T01:25:37.341Z,0.20
2019-04-14T01:28:12.080Z,0.17
2019-04-14T01:30:48.046Z,0.15
2019-04-14T01:33:18.325Z,0.16
2019-04-14T01:35:48.913Z,0.14
2019-04-14T01:38:19.038Z,0.14
2019-04-14T01:41:10.664Z,0.09
2019-04-14T01:43:40.670Z,0.06
2019-04-14T01:46:24.683Z,0.03
2019-04-14T01:48:51.921Z,-0.03
2019-04-14T01:51:37.512Z,-0.07
2019-04-14T01:54:21.968Z,-0.10
2019-04-14T01:57:30.961Z,-0.16
2019-04-14T02:00:45.002Z,-0.20
2019-04-14T02:03:28.177Z,-0.25
2019-04-14T02:06:11.561Z,-0.32
2019-04-14T02:09:21.479Z,-0.39
2019-04-14T02:12:17.325Z,-0.46
2019-04-14T02:15:13.307Z,-0.61
2019-04-14T02:17:48.310Z,-0.79
2019-04-14T02:20:38.119Z,-0.90
2019-04-14T02:23:47.549Z,-1.01
2019-04-14T02:26:33.356Z,-1.11
2019-04-14T02:29:14.838Z,-1.13
2019-04-14T02:32:25.321Z,-1.14
2019-04-14T02:35:00.229Z,-1.14
2019-04-14T02:37:34.575Z,-1.15
2019-04-14T02:40:21.697Z,-1.16
2019-04-14T02:43:13.012Z,-1.16
2019-04-14T02:45:33.161Z,-1.23
2019-04-14T02:48:03.827Z,-1.27
2019-04-14T02:50:24.364Z,-1.28
2019-04-14T02:53:13.065Z,-1.29
2019-04-14T02:55:46.813Z,-1.31
2019-04-14T02:58:23.292Z,-1.32
2019-04-14T03:03:41.379Z,-1.40
2019-04-14T03:06:14.605Z,-1.44
2019-04-14T03:08:50.802Z,-1.49
2019-04-14T03:11:18.675Z,-1.51
2019-04-14T03:13:51.095Z,-1.54
2019-04-14T03:16:58.315Z,-1.59
2019-04-14T03:19:56.539Z,-1.61
2019-04-14T03:22:45.450Z,-1.60
2019-04-14T03:25:30.060Z,-1.60
2019-04-14T03:39:18.772Z,-1.75
2019-04-14T03:44:33.149Z,-1.75
2019-04-14T03:46:58.195Z,-1.75
2019-04-14T03:49:32.106Z,-1.75
2019-04-14T03:55:01.048Z,-1.70
2019-04-14T03:57:19.419Z,-1.68
2019-04-14T03:59:56.277Z,-1.68
2019-04-14T04:02:31.551Z,-1.68
2019-04-14T04:05:04.196Z,-1.59
2019-04-14T04:07:34.381Z,-1.50
2019-04-14T04:10:15.866Z,-1.43
2019-04-14T04:12:46.999Z,-1.32
2019-04-14T04:15:21.401Z,-1.20
2019-04-14T04:18:04.817Z,-1.03
2019-04-14T04:21:05.330Z,-0.87
2019-04-14T04:24:27.826Z,-0.74
2019-04-14T04:27:28.919Z,-0.58
2019-04-14T04:30:12.370Z,-0.45
2019-04-14T04:33:24.230Z,-0.32
2019-04-14T04:36:01.091Z,-0.24
2019-04-14T04:39:04.001Z,-0.12
2019-04-14T04:41:33.978Z,-0.02
2019-04-14T04:44:11.682Z,0.08
2019-04-14T04:46:48.355Z,0.16
2019-04-14T04:49:21.787Z,0.27
2019-04-14T04:51:49.059Z,0.37
2019-04-14T04:54:27.924Z,0.44
2019-04-14T04:56:58.028Z,0.52
2019-04-14T04:59:32.117Z,0.56
2019-04-14T05:02:02.651Z,0.66
2019-04-14T05:04:41.630Z,0.74
2019-04-14T05:07:17.038Z,0.79
2019-04-14T05:10:06.870Z,0.85
2019-04-14T05:13:09.400Z,0.94
2019-04-14T05:15:53.216Z,1.00
2019-04-14T05:18:29.099Z,1.08
2019-04-14T05:20:59.523Z,1.25
2019-04-14T05:23:29.943Z,1.25
2019-04-14T05:26:00.574Z,1.37
2019-04-14T05:28:31.009Z,1.37
2019-04-14T05:31:01.234Z,1.40
2019-04-14T05:33:38.925Z,1.43
2019-04-14T05:36:08.662Z,1.40
2019-04-14T05:38:44.926Z,1.40
2019-04-14T05:41:18.002Z,1.37
2019-04-14T05:43:57.060Z,1.35
2019-04-14T05:46:25.170Z,1.33
2019-04-14T05:48:55.784Z,1.35
2019-04-14T05:51:26.399Z,1.35
2019-04-14T05:53:58.974Z,1.41
2019-04-14T05:56:29.539Z,1.50
2019-04-14T05:59:00.054Z,1.56
2019-04-14T06:01:31.573Z,1.81
2019-04-14T06:04:02.447Z,1.96
2019-04-14T06:06:32.089Z,1.96
2019-04-14T06:09:01.581Z,2.12
2019-04-14T06:11:31.039Z,2.12
2019-04-14T06:14:00.427Z,2.28
2019-04-14T06:16:29.903Z,2.53
2019-04-14T06:18:59.334Z,2.58
2019-04-14T06:21:28.794Z,2.58
2019-04-14T06:23:58.543Z,2.58
2019-04-14T06:26:28.253Z,2.67
2019-04-14T06:28:57.661Z,2.80
2019-04-14T06:31:34.964Z,2.89
2019-04-14T06:34:09.162Z,2.96
2019-04-14T06:37:07.582Z,3.07
2019-04-14T06:39:40.432Z,3.21
2019-04-14T06:42:10.013Z,3.30
2019-04-14T06:44:39.555Z,3.36
2019-04-14T06:47:09.127Z,3.38
2019-04-14T06:49:48.379Z,3.57
2019-04-14T06:52:12.578Z,3.67
2019-04-14T06:54:42.208Z,3.74
2019-04-14T06:57:11.603Z,3.80
2019-04-14T06:59:41.494Z,3.93
2019-04-14T07:02:11.062Z,4.17
2019-04-14T07:04:40.503Z,4.17
2019-04-14T07:07:10.169Z,4.32
2019-04-14T07:09:39.667Z,4.34
2019-04-14T07:12:09.191Z,4.46
2019-04-14T07:14:39.375Z,4.62
2019-04-14T07:17:08.850Z,4.67
2019-04-14T07:19:38.327Z,4.87
2019-04-14T07:22:07.820Z,4.87
2019-04-14T07:24:37.726Z,5.04
2019-04-14T07:27:07.120Z,5.19
2019-04-14T07:29:46.244Z,5.22
2019-04-14T07:32:47.229Z,5.41
2019-04-14T07:35:35.124Z,5.46
2019-04-14T07:38:15.613Z,5.48
2019-04-14T07:41:08.130Z,5.53
2019-04-14T07:43:54.063Z,5.67
2019-04-14T07:46:43.830Z,5.82
2019-04-14T07:49:32.841Z,5.87
2019-04-14T07:52:20.391Z,5.90
2019-04-14T07:55:17.029Z,5.92
2019-04-14T07:57:58.032Z,5.95
2019-04-14T08:00:36.751Z,6.02
2019-04-14T08:03:10.658Z,6.13
2019-04-14T08:05:44.017Z,6.25
2019-04-14T08:08:16.758Z,6.35
2019-04-14T08:10:46.314Z,6.49
2019-04-14T08:13:15.957Z,6.46
2019-04-14T08:15:45.364Z,6.59
2019-04-14T08:18:15.213Z,6.68
2019-04-14T08:20:46.228Z,6.74
2019-04-14T08:23:15.808Z,6.82
2019-04-14T08:25:48.289Z,6.92
2019-04-14T08:28:17.682Z,7.03
2019-04-14T08:30:47.230Z,6.96
2019-04-14T08:33:16.897Z,6.95
2019-04-14T08:35:46.628Z,6.99
2019-04-14T08:38:16.577Z,7.01
2019-04-14T08:40:46.251Z,7.11
2019-04-14T08:43:34.463Z,7.17
2019-04-14T08:46:28.576Z,7.19
2019-04-14T08:49:07.390Z,7.32
2019-04-14T08:51:42.627Z,7.42
2019-04-14T08:54:36.947Z,7.50
2019-04-14T08:57:34.398Z,7.65
2019-04-14T09:00:32.054Z,7.65
2019-04-14T09:03:23.252Z,7.65
2019-04-14T09:06:10.258Z,7.58
2019-04-14T09:08:53.344Z,7.50
2019-04-14T09:11:28.983Z,7.41
2019-04-14T09:14:10.155Z,7.42
2019-04-14T09:16:31.043Z,7.47
2019-04-14T09:19:07.387Z,7.52
2019-04-14T09:21:31.588Z,7.62
2019-04-14T09:24:00.967Z,7.73
2019-04-14T09:26:30.428Z,7.67
2019-04-14T09:29:00.239Z,7.65
2019-04-14T09:31:29.824Z,7.68
2019-04-14T09:33:59.268Z,7.78
2019-04-14T09:36:28.775Z,7.79
2019-04-14T09:38:58.312Z,7.91
2019-04-14T09:41:27.715Z,7.90
2019-04-14T09:43:57.163Z,7.91
2019-04-14T09:46:26.571Z,7.91
2019-04-14T09:48:56.044Z,8.01
2019-04-14T09:51:25.574Z,8.11
2019-04-14T09:53:55.110Z,8.23
2019-04-14T09:56:24.550Z,8.43
2019-04-14T09:58:54.212Z,8.49
2019-04-14T10:01:27.611Z,8.50
2019-04-14T10:03:57.084Z,8.54
2019-04-14T10:06:26.670Z,8.54
2019-04-14T10:08:56.372Z,8.51
2019-04-14T10:11:25.935Z,8.54
2019-04-14T10:13:55.427Z,8.50
2019-04-14T10:16:25.064Z,8.49
2019-04-14T10:18:54.555Z,8.55
2019-04-14T10:21:24.217Z,8.74
2019-04-14T10:23:53.587Z,8.88
2019-04-14T10:26:23.074Z,9.01
2019-04-14T10:28:53.123Z,9.27
2019-04-14T10:31:22.579Z,9.37
2019-04-14T10:33:52.382Z,9.44
2019-04-14T10:36:21.891Z,9.61
2019-04-14T10:38:51.587Z,9.61
2019-04-14T10:41:21.094Z,9.38
2019-04-14T10:43:50.623Z,9.24
2019-04-14T10:46:20.062Z,8.99
2019-04-14T10:48:49.992Z,8.63
2019-04-14T10:51:29.464Z,8.42
2019-04-14T10:53:51.094Z,8.23
2019-04-14T10:56:20.685Z,8.15
2019-04-14T10:58:50.173Z,8.14
2019-04-14T11:01:19.733Z,8.17
2019-04-14T11:03:50.516Z,8.19
2019-04-14T11:06:30.259Z,8.32
2019-04-14T11:08:59.627Z,8.41
2019-04-14T11:11:29.109Z,8.40
2019-04-14T11:13:58.547Z,8.37
2019-04-14T11:16:27.906Z,8.23
2019-04-14T11:18:59.326Z,8.18
2019-04-14T11:21:41.612Z,8.22
2019-04-14T11:24:00.566Z,8.14
2019-04-14T11:26:30.067Z,8.19
2019-04-14T11:28:59.731Z,8.22
2019-04-14T11:32:03.239Z,8.22
2019-04-14T11:34:41.341Z,8.37
2019-04-14T11:37:29.350Z,8.61
2019-04-14T11:39:59.053Z,8.84
2019-04-14T11:42:28.460Z,8.90
2019-04-14T11:44:58.244Z,9.11
2019-04-14T11:47:27.938Z,9.26
2019-04-14T11:49:59.225Z,9.49
2019-04-14T11:52:28.662Z,9.71
2019-04-14T11:54:59.360Z,9.94
2019-04-14T11:57:28.914Z,10.06
2019-04-14T12:00:15.426Z,10.18
2019-04-14T12:03:16.559Z,10.35
2019-04-14T12:06:26.524Z,10.09
2019-04-14T12:09:26.999Z,9.75
2019-04-14T12:11:56.573Z,9.39
2019-04-14T12:14:26.128Z,9.20
2019-04-14T12:16:55.564Z,9.07
2019-04-14T12:19:25.162Z,8.99
2019-04-14T12:22:07.434Z,8.90
2019-04-14T12:24:25.728Z,9.07
2019-04-14T12:26:55.947Z,9.26
2019-04-14T12:29:26.130Z,9.49
2019-04-14T12:31:55.838Z,9.67
2019-04-14T12:34:25.482Z,9.85
2019-04-14T12:36:55.288Z,10.04
2019-04-14T12:39:25.532Z,10.15
2019-04-14T12:42:12.455Z,10.17
2019-04-14T12:45:01.780Z,10.16
2019-04-14T12:47:41.795Z,10.22
2019-04-14T12:50:34.173Z,10.31
2019-04-14T12:53:03.708Z,10.44
2019-04-14T12:55:33.146Z,10.49
2019-04-14T12:58:04.294Z,10.48
2019-04-14T13:00:49.352Z,10.45
2019-04-14T13:03:18.944Z,10.47
2019-04-14T13:05:48.503Z,10.41
2019-04-14T13:08:17.935Z,10.30
2019-04-14T13:10:47.409Z,10.23
2019-04-14T13:13:16.967Z,10.17
2019-04-14T13:15:46.525Z,10.15
2019-04-14T13:18:15.971Z,10.20
2019-04-14T13:20:45.455Z,10.19
2019-04-14T13:23:15.086Z,10.17
2019-04-14T13:25:44.595Z,10.07
2019-04-14T13:28:14.198Z,9.99
2019-04-14T13:30:46.857Z,10.01
2019-04-14T13:33:16.424Z,10.04
2019-04-14T13:35:46.255Z,10.03
2019-04-14T13:38:17.271Z,10.06
2019-04-14T13:40:46.948Z,10.10
2019-04-14T13:43:19.333Z,10.16
2019-04-14T13:45:49.006Z,10.31
2019-04-14T13:48:18.388Z,10.30
2019-04-14T13:50:48.235Z,10.27
2019-04-14T13:53:17.680Z,10.18
2019-04-14T13:55:47.747Z,10.24
2019-04-14T13:58:17.271Z,10.25
2019-04-14T14:00:47.227Z,10.30
2019-04-14T14:03:16.690Z,10.32
2019-04-14T14:05:55.819Z,10.35
2019-04-14T14:08:25.307Z,10.25
2019-04-14T14:10:58.055Z,10.22
2019-04-14T14:13:39.198Z,10.22
2019-04-14T14:16:39.718Z,10.19
2019-04-14T14:19:23.002Z,10.01
2019-04-14T14:22:15.039Z,9.61
2019-04-14T14:24:52.536Z,9.56
2019-04-14T14:27:21.984Z,9.48
2019-04-14T14:29:51.367Z,9.41
2019-04-14T14:32:32.412Z,9.39
2019-04-14T14:35:01.997Z,9.50
2019-04-14T14:37:32.555Z,9.61
2019-04-14T14:40:02.049Z,9.49
2019-04-14T14:42:31.517Z,9.39
2019-04-14T14:45:20.175Z,9.28
2019-04-14T14:48:09.530Z,9.21
2019-04-14T14:50:47.532Z,9.10
2019-04-14T14:53:16.956Z,9.08
2019-04-14T14:55:46.384Z,9.18
2019-04-14T14:58:16.025Z,9.24
2019-04-14T15:00:45.439Z,9.18
2019-04-14T15:03:14.840Z,9.17
2019-04-14T15:05:44.462Z,9.14
2019-04-14T15:08:14.073Z,9.04
2019-04-14T15:10:43.475Z,9.08
2019-04-14T15:13:13.019Z,9.13
2019-04-14T15:15:42.700Z,9.21
2019-04-14T15:18:12.327Z,9.33
2019-04-14T15:20:41.937Z,9.45
2019-04-14T15:23:24.017Z,9.52
2019-04-14T15:25:42.569Z,9.59
2019-04-14T15:28:12.119Z,9.53
2019-04-14T15:30:41.516Z,9.45
2019-04-14T15:33:10.914Z,9.44
2019-04-14T15:35:40.470Z,9.49
2019-04-14T15:38:10.185Z,9.56
2019-04-14T15:40:42.076Z,9.62
2019-04-14T15:43:11.461Z,9.62
2019-04-14T15:45:40.932Z,9.67
2019-04-14T15:48:10.370Z,9.83
2019-04-14T15:50:40.278Z,10.06
2019-04-14T15:53:09.754Z,10.38
2019-04-14T15:55:39.219Z,10.73
2019-04-14T15:58:18.965Z,11.00
2019-04-14T16:01:10.270Z,11.27
2019-04-14T16:03:45.390Z,11.54
2019-04-14T16:06:41.725Z,11.84
2019-04-14T16:09:33.124Z,11.93
2019-04-14T16:12:16.288Z,12.02
2019-04-14T16:15:14.211Z,12.10
2019-04-14T16:18:02.437Z,12.18
2019-04-14T16:20:34.229Z,12.44
2019-04-14T16:23:03.693Z,12.70
2019-04-14T16:26:02.187Z,12.93
2019-04-14T16:28:53.590Z,13.10
2019-04-14T16:31:40.549Z,13.09
2019-04-14T16:34:16.308Z,12.69
2019-04-14T16:36:46.670Z,12.39
2019-04-14T16:39:16.212Z,12.43
2019-04-14T16:41:46.201Z,12.62
2019-04-14T16:44:15.726Z,12.83
2019-04-14T16:46:45.256Z,12.95
2019-04-14T16:49:14.811Z,13.09
2019-04-14T16:52:12.189Z,13.04
2019-04-14T16:54:56.729Z,12.95
2019-04-14T16:57:43.721Z,12.89
2019-04-14T17:00:16.660Z,12.88
2019-04-14T17:02:50.245Z,12.97
2019-04-14T17:05:19.731Z,12.88
2019-04-14T17:07:49.138Z,13.01
2019-04-14T17:10:18.541Z,13.05
2019-04-14T17:12:48.063Z,12.58
2019-04-14T17:15:30.543Z,11.81
2019-04-14T17:18:18.640Z,10.95
2019-04-14T17:21:16.081Z,10.20
2019-04-14T17:23:54.056Z,9.67
2019-04-14T17:26:33.321Z,9.25
2019-04-14T17:29:21.740Z,8.96
2019-04-14T17:32:25.382Z,8.73
2019-04-14T17:35:12.644Z,8.51
2019-04-14T17:38:03.858Z,8.29
2019-04-14T17:40:51.314Z,8.13
2019-04-14T17:43:28.905Z,7.98
2019-04-14T17:46:17.255Z,7.83
2019-04-14T17:49:05.669Z,7.96
2019-04-14T17:51:50.636Z,8.09
2019-04-14T17:54:35.487Z,8.08
2019-04-14T17:57:23.779Z,8.02
2019-04-14T18:00:04.243Z,7.90
2019-04-14T18:02:52.457Z,7.72
2019-04-14T18:05:40.803Z,7.54
2019-04-14T18:08:32.707Z,7.32
2019-04-14T18:11:07.780Z,7.20
2019-04-14T18:14:02.402Z,7.00
2019-04-14T18:16:36.054Z,6.87
2019-04-14T18:19:12.671Z,6.70
2019-04-14T18:21:44.305Z,6.58
2019-04-14T18:24:13.454Z,6.44
2019-04-14T18:26:42.820Z,6.35
2019-04-14T18:29:46.397Z,6.23
2019-04-14T18:32:29.863Z,6.12
2019-04-14T18:35:20.571Z,5.99
2019-04-14T18:38:13.923Z,5.90
2019-04-14T18:41:01.789Z,5.81
2019-04-14T18:43:56.453Z,5.71
2019-04-14T18:46:56.782Z,5.49
2019-04-14T18:49:44.034Z,5.39
2019-04-14T18:52:35.510Z,5.39
2019-04-14T18:55:30.315Z,5.30
2019-04-14T18:58:36.325Z,5.22
2019-04-14T19:01:11.600Z,5.12
2019-04-14T19:03:41.107Z,5.04
2019-04-14T19:06:10.565Z,4.98
2019-04-14T19:08:39.944Z,4.93
2019-04-14T19:11:26.242Z,4.89
2019-04-14T19:13:57.461Z,4.83
2019-04-14T19:16:39.606Z,4.79
2019-04-14T19:19:05.146Z,4.72
2019-04-14T19:21:34.533Z,4.64
2019-04-14T19:24:03.975Z,4.59
2019-04-14T19:26:33.345Z,4.53
2019-04-14T19:29:03.238Z,4.46
2019-04-14T19:31:32.686Z,4.39
2019-04-14T19:34:02.630Z,4.34
2019-04-14T19:36:32.025Z,4.26
2019-04-14T19:39:01.477Z,4.22
2019-04-14T19:41:32.566Z,4.16
2019-04-14T19:44:02.443Z,4.12
2019-04-14T19:46:31.855Z,4.08
2019-04-14T19:49:01.244Z,4.02
2019-04-14T19:51:30.693Z,3.99
2019-04-14T19:54:00.394Z,3.90
2019-04-14T19:56:29.967Z,3.85
2019-04-14T19:59:06.383Z,3.78
2019-04-14T20:01:35.862Z,3.73
2019-04-14T20:04:05.285Z,3.65
2019-04-14T20:06:36.201Z,3.54
2019-04-14T20:09:07.129Z,3.45
2019-04-14T20:11:36.689Z,3.26
2019-04-14T20:14:06.126Z,3.26
2019-04-14T20:17:13.025Z,3.17
2019-04-14T20:19:59.877Z,3.08
2019-04-14T20:22:48.274Z,2.98
2019-04-14T20:25:41.283Z,2.79
2019-04-14T20:28:16.958Z,2.79
2019-04-14T20:30:49.821Z,2.63
2019-04-14T20:33:19.370Z,2.63
2019-04-14T20:35:48.897Z,2.57
2019-04-14T20:38:18.353Z,2.45
2019-04-14T20:40:48.363Z,2.45
2019-04-14T20:43:17.772Z,2.43
2019-04-14T20:45:47.429Z,2.43
2019-04-14T20:48:17.004Z,2.35
2019-04-14T20:50:46.444Z,2.25
2019-04-14T20:53:18.522Z,2.09
2019-04-14T20:55:47.971Z,2.03
2019-04-14T20:58:17.408Z,2.03
2019-04-14T21:00:49.405Z,1.90
2019-04-14T21:03:40.841Z,1.86
2019-04-14T21:06:29.299Z,1.81
2019-04-14T21:09:19.389Z,1.81
2019-04-14T21:12:16.711Z,1.65
2019-04-14T21:14:54.968Z,1.65
2019-04-14T21:17:41.282Z,1.57
2019-04-14T21:20:27.941Z,1.49
2019-04-14T21:23:32.950Z,1.27
2019-04-14T21:26:16.693Z,1.18
2019-04-14T21:29:02.351Z,1.18
2019-04-14T21:31:39.065Z,1.15
2019-04-14T21:34:16.996Z,1.07
2019-04-14T21:36:55.264Z,1.03
2019-04-14T21:39:40.386Z,0.96
2019-04-14T21:42:09.637Z,0.89
2019-04-14T21:44:48.784Z,0.83
2019-04-14T21:47:20.921Z,0.75
2019-04-14T21:49:58.290Z,0.74
2019-04-14T21:52:49.857Z,0.66
2019-04-14T21:55:32.049Z,0.60
2019-04-14T21:58:25.529Z,0.54
2019-04-14T22:01:44.559Z,0.48
2019-04-14T22:04:35.703Z,0.45
2019-04-14T22:07:26.811Z,0.41
2019-04-14T22:10:00.504Z,0.41
2019-04-14T22:12:40.056Z,0.39
2019-04-14T22:15:17.958Z,0.34
2019-04-14T22:17:47.410Z,0.29
2019-04-14T22:20:19.226Z,0.24
2019-04-14T22:22:48.712Z,0.18
2019-04-14T22:25:25.757Z,0.16
2019-04-14T22:27:55.267Z,0.12
2019-04-14T22:30:24.958Z,0.11
2019-04-14T22:32:54.363Z,0.10
2019-04-14T22:35:33.356Z,0.07
2019-04-14T22:38:02.710Z,0.03
2019-04-14T22:40:35.130Z,-0.01
2019-04-14T22:43:05.752Z,-0.04
2019-04-14T22:46:11.974Z,-0.08
2019-04-14T22:48:39.489Z,-0.12
2019-04-14T22:51:09.089Z,-0.19
2019-04-14T22:54:22.779Z,-0.23
2019-04-14T22:56:39.050Z,-0.26
2019-04-14T22:59:04.461Z,-0.32
2019-04-14T23:01:39.573Z,-0.35
2019-04-14T23:04:46.363Z,-0.40
2019-04-14T23:07:51.608Z,-0.44
2019-04-14T23:10:53.793Z,-0.50
2019-04-14T23:14:19.284Z,-0.54
2019-04-14T23:17:06.861Z,-0.57
2019-04-14T23:19:49.603Z,-0.65
2019-04-14T23:22:43.315Z,-0.67
2019-04-14T23:25:46.991Z,-0.72
2019-04-14T23:28:55.907Z,-0.77
2019-04-14T23:31:27.334Z,-0.80
2019-04-14T23:34:15.139Z,-0.86
2019-04-14T23:36:51.247Z,-0.91
2019-04-14T23:39:22.700Z,-0.95
2019-04-14T23:41:52.989Z,-0.99
2019-04-14T23:44:31.348Z,-1.03
2019-04-14T23:47:01.054Z,-1.05
2019-04-14T23:49:51.245Z,-1.10
